createdAt,value
2022-11-29T00:01:29.836Z,100350.72
2022-11-29T00:03:56.737Z,100345.34
2022-11-29T00:06:27.379Z,100347.81
2022-11-29T00:08:59.440Z,100340.34
2022-11-29T00:11:47.641Z,100348.84
2022-11-29T00:14:16.610Z,100346.16
2022-11-29T00:16:43.479Z,100352.78
2022-11-29T00:19:11.731Z,100351.97
2022-11-29T00:21:38.593Z,100348.66
2022-11-29T00:24:05.456Z,100342.47
2022-11-29T00:26:32.042Z,100340.84
2022-11-29T00:28:58.560Z,100346.19
2022-11-29T00:31:31.647Z,100335.88
2022-11-29T00:34:00.961Z,100347.03
2022-11-29T00:36:27.710Z,100346.84
2022-11-29T00:38:54.148Z,100349.72
2022-11-29T00:41:20.622Z,100345.38
2022-11-29T00:43:47.126Z,100342.09
2022-11-29T00:46:13.595Z,100347.44
2022-11-29T00:48:40.145Z,100349.31
2022-11-29T00:51:07.719Z,100347.44
2022-11-29T00:53:35.150Z,100354.69
2022-11-29T00:56:01.998Z,100353.66
2022-11-29T00:58:28.777Z,100351.78
2022-11-29T01:00:55.486Z,100346.41
2022-11-29T01:03:22.554Z,100346.38
2022-11-29T01:05:49.673Z,100338.56
2022-11-29T01:08:17.336Z,100341.22
2022-11-29T01:10:43.857Z,100344.72
2022-11-29T01:13:10.894Z,100335.88
2022-11-29T01:15:38.238Z,100342.25
2022-11-29T01:18:05.139Z,100350.31
2022-11-29T01:20:31.670Z,100344.94
2022-11-29T01:22:58.687Z,100348.25
2022-11-29T01:25:25.242Z,100362.69
2022-11-29T01:27:51.689Z,100361.66
2022-11-29T01:30:18.142Z,100360.81
2022-11-29T01:32:44.590Z,100364.34
2022-11-29T01:35:11.059Z,100372.16
2022-11-29T01:37:37.482Z,100365.97
2022-11-29T01:40:04.662Z,100365.97
2022-11-29T01:42:31.119Z,100369.72
2022-11-29T01:45:08.291Z,100372.34
2022-11-29T01:47:40.960Z,100375.84
2022-11-29T01:50:08.555Z,100381.03
2022-11-29T01:52:35.048Z,100374.84
2022-11-29T01:55:04.543Z,100377.91
2022-11-29T01:57:33.905Z,100374.19
2022-11-29T02:00:08.692Z,100371.50
2022-11-29T02:02:52.330Z,100369.41
2022-11-29T02:05:20.231Z,100372.53
2022-11-29T02:07:49.832Z,100374.19
2022-11-29T02:10:17.363Z,100381.66
2022-11-29T02:13:04.020Z,100378.97
2022-11-29T02:15:41.228Z,100375.00
2022-11-29T02:18:14.665Z,100370.03
2022-11-29T02:21:21.008Z,100368.38
2022-11-29T02:24:07.176Z,100370.44
2022-11-29T02:27:02.623Z,100376.19
2022-11-29T02:30:04.244Z,100378.09
2022-11-29T02:33:10.729Z,100367.53
2022-11-29T02:36:17.453Z,100376.41
2022-11-29T02:39:19.700Z,100377.22
2022-11-29T02:42:15.084Z,100377.44
2022-11-29T02:44:56.439Z,100385.09
2022-11-29T02:47:40.892Z,100381.22
2022-11-29T02:50:30.404Z,100378.75
2022-11-29T02:53:13.956Z,100379.16
2022-11-29T02:56:01.449Z,100385.09
2022-11-29T02:58:51.228Z,100381.97
2022-11-29T03:02:06.225Z,100389.44
2022-11-29T03:04:51.540Z,100387.81
2022-11-29T03:07:35.283Z,100394.63
2022-11-29T03:10:23.445Z,100391.13
2022-11-29T03:12:53.612Z,100404.34
2022-11-29T03:15:34.091Z,100400.22
2022-11-29T03:18:22.398Z,100398.78
2022-11-29T03:21:08.129Z,100397.31
2022-11-29T03:23:39.166Z,100395.06
2022-11-29T03:26:18.201Z,100399.97
2022-11-29T03:29:07.242Z,100402.22
2022-11-29T03:31:38.521Z,100403.09
2022-11-29T03:34:18.391Z,100408.03
2022-11-29T03:37:08.409Z,100405.97
2022-11-29T03:39:44.834Z,100409.69
2022-11-29T03:42:16.525Z,100415.28
2022-11-29T03:44:56.564Z,100418.78
2022-11-29T03:47:38.443Z,100416.72
2022-11-29T03:50:39.922Z,100419.53
2022-11-29T03:53:18.177Z,100426.59
2022-11-29T03:55:53.561Z,100422.91
2022-11-29T03:58:29.023Z,100426.19
2022-11-29T04:01:10.808Z,100420.81
2022-11-29T04:04:03.421Z,100428.72
2022-11-29T04:06:54.917Z,100425.38
2022-11-29T04:09:33.414Z,100426.84
2022-11-29T04:12:15.066Z,100422.53
2022-11-29T04:15:26.515Z,100434.88
2022-11-29T04:18:06.779Z,100431.41
2022-11-29T04:21:21.330Z,100433.66
2022-11-29T04:24:09.746Z,100437.97
2022-11-29T04:26:51.403Z,100439.25
2022-11-29T04:29:44.259Z,100445.22
2022-11-29T04:32:42.862Z,100445.19
2022-11-29T04:35:29.536Z,100452.50
2022-11-29T04:38:29.758Z,100455.53
2022-11-29T04:41:24.169Z,100465.66
2022-11-29T04:44:24.409Z,100456.34
2022-11-29T04:47:32.458Z,100458.38
2022-11-29T04:50:12.915Z,100462.56
2022-11-29T04:52:52.091Z,100468.34
2022-11-29T04:56:04.206Z,100465.03
2022-11-29T04:58:36.345Z,100470.63
2022-11-29T05:01:28.208Z,100473.50
2022-11-29T05:04:06.925Z,100479.91
2022-11-29T05:06:50.092Z,100480.53
2022-11-29T05:09:35.478Z,100485.28
2022-11-29T05:12:32.958Z,100485.88
2022-11-29T05:15:22.092Z,100480.75
2022-11-29T05:18:22.403Z,100495.91
2022-11-29T05:21:04.103Z,100496.00
2022-11-29T05:23:40.729Z,100489.47
2022-11-29T05:26:38.331Z,100484.69
2022-11-29T05:29:20.371Z,100492.75
2022-11-29T05:32:03.523Z,100493.09
2022-11-29T05:34:59.784Z,100505.16
2022-11-29T05:37:32.663Z,100508.88
2022-11-29T05:40:17.792Z,100506.44
2022-11-29T05:43:15.520Z,100513.50
2022-11-29T05:45:56.474Z,100509.91
2022-11-29T05:48:54.564Z,100515.22
2022-11-29T05:51:42.743Z,100519.94
2022-11-29T05:54:23.790Z,100520.69
2022-11-29T05:57:21.880Z,100516.03
2022-11-29T05:59:50.333Z,100510.50
2022-11-29T06:02:25.920Z,100516.13
2022-11-29T06:05:13.191Z,100524.69
2022-11-29T06:07:52.020Z,100525.97
2022-11-29T06:10:21.180Z,100533.56
2022-11-29T06:13:11.433Z,100529.03
2022-11-29T06:15:50.097Z,100528.09
2022-11-29T06:18:34.040Z,100538.03
2022-11-29T06:21:34.517Z,100542.50
2022-11-29T06:24:29.944Z,100538.03
2022-11-29T06:27:03.822Z,100541.44
2022-11-29T06:29:55.319Z,100540.16
2022-11-29T06:32:37.441Z,100538.19
2022-11-29T06:35:21.221Z,100542.41
2022-11-29T06:37:58.401Z,100552.22
2022-11-29T06:40:25.057Z,100544.88
2022-11-29T06:42:52.073Z,100554.81
2022-11-29T06:45:19.097Z,100564.69
2022-11-29T06:48:01.604Z,100559.56
2022-11-29T06:51:09.242Z,100556.78
2022-11-29T06:54:01.085Z,100559.78
2022-11-29T06:57:13.489Z,100565.44
2022-11-29T07:00:05.079Z,100573.97
2022-11-29T07:02:53.570Z,100567.66
2022-11-29T07:05:29.933Z,100574.97
2022-11-29T07:08:02.719Z,100579.41
2022-11-29T07:10:31.992Z,100582.63
2022-11-29T07:12:58.900Z,100582.28
2022-11-29T07:15:25.933Z,100591.44
2022-11-29T07:18:28.210Z,100586.47
2022-11-29T07:21:13.593Z,100595.56
2022-11-29T07:23:49.219Z,100600.22
2022-11-29T07:26:37.003Z,100605.16
2022-11-29T07:29:03.642Z,100595.75
2022-11-29T07:31:44.702Z,100601.97
2022-11-29T07:34:34.619Z,100595.75
2022-11-29T07:37:37.525Z,100595.97
2022-11-29T07:40:37.429Z,100603.22
2022-11-29T07:43:13.463Z,100608.28
2022-11-29T07:45:40.258Z,100616.97
2022-11-29T07:48:07.069Z,100613.50
2022-11-29T07:50:36.004Z,100615.72
2022-11-29T07:53:03.475Z,100620.31
2022-11-29T07:55:32.167Z,100621.34
2022-11-29T07:57:58.715Z,100618.25
2022-11-29T08:00:25.300Z,100627.16
2022-11-29T08:02:52.105Z,100626.53
2022-11-29T08:05:18.875Z,100631.38
2022-11-29T08:07:46.495Z,100621.19
2022-11-29T08:10:15.728Z,100633.16
2022-11-29T08:12:48.041Z,100636.69
2022-11-29T08:15:15.012Z,100638.56
2022-11-29T08:17:41.624Z,100638.19
2022-11-29T08:20:10.150Z,100643.34
2022-11-29T08:22:36.771Z,100625.38
2022-11-29T08:25:04.195Z,100625.38
2022-11-29T08:27:32.453Z,100626.41
2022-11-29T08:29:59.456Z,100627.06
2022-11-29T08:32:26.766Z,100637.81
2022-11-29T08:34:53.416Z,100636.97
2022-11-29T08:37:21.428Z,100632.84
2022-11-29T08:39:48.010Z,100644.00
2022-11-29T08:42:14.586Z,100649.78
2022-11-29T08:44:41.253Z,100643.59
2022-11-29T08:47:27.655Z,100652.75
2022-11-29T08:50:03.028Z,100653.47
2022-11-29T08:52:49.076Z,100658.25
2022-11-29T08:55:16.594Z,100662.56
2022-11-29T08:57:43.366Z,100666.31
2022-11-29T09:00:10.134Z,100664.72
2022-11-29T09:02:37.252Z,100668.13
2022-11-29T09:05:05.336Z,100677.22
2022-11-29T09:07:32.095Z,100673.69
2022-11-29T09:09:58.873Z,100678.25
2022-11-29T09:12:25.380Z,100679.16
2022-11-29T09:14:52.178Z,100676.38
2022-11-29T09:17:18.578Z,100680.59
2022-11-29T09:19:45.111Z,100678.66
2022-11-29T09:22:11.589Z,100683.16
2022-11-29T09:24:38.110Z,100681.50
2022-11-29T09:27:04.764Z,100685.03
2022-11-29T09:29:31.294Z,100684.84
2022-11-29T09:31:57.880Z,100688.09
2022-11-29T09:34:24.678Z,100689.97
2022-11-29T09:36:51.465Z,100693.75
2022-11-29T09:39:18.062Z,100687.28
2022-11-29T09:42:18.457Z,100697.13
2022-11-29T09:45:01.490Z,100695.47
2022-11-29T09:47:49.082Z,100696.09
2022-11-29T09:50:36.998Z,100694.81
2022-11-29T09:53:09.239Z,100699.72
2022-11-29T09:56:02.863Z,100708.66
2022-11-29T09:58:34.326Z,100711.59
2022-11-29T10:01:06.177Z,100697.56
2022-11-29T10:03:42.760Z,100704.16
2022-11-29T10:06:32.133Z,100707.84
2022-11-29T10:09:07.207Z,100707.66
2022-11-29T10:11:48.796Z,100710.75
2022-11-29T10:14:21.479Z,100704.97
2022-11-29T10:16:54.208Z,100702.69
2022-11-29T10:19:48.099Z,100706.41
2022-11-29T10:22:43.783Z,100705.97
2022-11-29T10:25:21.327Z,100703.28
2022-11-29T10:27:47.929Z,100703.09
2022-11-29T10:30:16.271Z,100709.09
2022-11-29T10:32:45.516Z,100700.81
2022-11-29T10:35:18.282Z,100705.53
2022-11-29T10:38:01.494Z,100701.44
2022-11-29T10:40:35.215Z,100709.25
2022-11-29T10:43:02.929Z,100708.41
2022-11-29T10:45:45.971Z,100714.78
2022-11-29T10:48:18.752Z,100709.41
2022-11-29T10:50:48.897Z,100718.28
2022-11-29T10:53:22.618Z,100718.06
2022-11-29T10:55:59.034Z,100716.41
2022-11-29T10:58:28.863Z,100715.78
2022-11-29T11:01:02.283Z,100713.91
2022-11-29T11:03:36.396Z,100715.34
2022-11-29T11:06:05.797Z,100710.19
2022-11-29T11:08:34.611Z,100709.75
2022-11-29T11:11:03.044Z,100716.78
2022-11-29T11:13:31.602Z,100720.09
2022-11-29T11:16:09.873Z,100718.78
2022-11-29T11:18:37.891Z,100721.28
2022-11-29T11:21:08.139Z,100713.22
2022-11-29T11:23:42.316Z,100724.16
2022-11-29T11:26:13.354Z,100722.06
2022-11-29T11:29:01.309Z,100720.31
2022-11-29T11:31:38.143Z,100714.81
2022-11-29T11:34:38.757Z,100725.28
2022-11-29T11:37:29.607Z,100724.44
2022-11-29T11:39:58.822Z,100729.09
2022-11-29T11:42:37.738Z,100729.09
2022-11-29T11:45:10.535Z,100734.47
2022-11-29T11:47:52.376Z,100732.66
2022-11-29T11:50:29.629Z,100742.38
2022-11-29T11:52:58.025Z,100741.84
2022-11-29T11:55:33.550Z,100738.28
2022-11-29T11:58:11.995Z,100739.94
2022-11-29T12:01:05.098Z,100740.75
2022-11-29T12:03:50.924Z,100743.44
2022-11-29T12:06:42.202Z,100748.25
2022-11-29T12:09:08.705Z,100743.72
2022-11-29T12:11:46.825Z,100752.78
2022-11-29T12:14:21.982Z,100752.56
2022-11-29T12:16:50.742Z,100757.09
2022-11-29T12:19:24.652Z,100755.56
2022-11-29T12:21:59.470Z,100764.16
2022-11-29T12:24:40.424Z,100756.81
2022-11-29T12:27:14.631Z,100764.50
2022-11-29T12:29:41.197Z,100758.28
2022-11-29T12:32:43.682Z,100762.31
2022-11-29T12:35:19.307Z,100758.22
2022-11-29T12:37:54.126Z,100763.25
2022-11-29T12:40:41.847Z,100765.72
2022-11-29T12:43:23.482Z,100764.50
2022-11-29T12:46:09.190Z,100773.19
2022-11-29T12:49:13.362Z,100771.53
2022-11-29T12:52:20.937Z,100767.63
2022-11-29T12:55:03.701Z,100768.75
2022-11-29T12:57:48.126Z,100773.28
2022-11-29T13:00:17.770Z,100773.75
2022-11-29T13:03:02.697Z,100778.28
2022-11-29T13:05:40.112Z,100774.56
2022-11-29T13:08:06.555Z,100781.88
2022-11-29T13:11:07.301Z,100782.81
2022-11-29T13:13:44.620Z,100777.06
2022-11-29T13:16:23.072Z,100789.38
2022-11-29T13:19:07.270Z,100783.91
2022-11-29T13:21:58.281Z,100783.38
2022-11-29T13:24:37.106Z,100794.75
2022-11-29T13:27:07.348Z,100788.59
2022-11-29T13:29:34.895Z,100791.09
2022-11-29T13:32:14.449Z,100789.00
2022-11-29T13:34:47.447Z,100790.47
2022-11-29T13:37:24.076Z,100795.66
2022-11-29T13:40:16.204Z,100802.06
2022-11-29T13:43:25.274Z,100797.06
2022-11-29T13:46:22.943Z,100797.53
2022-11-29T13:48:51.925Z,100803.16
2022-11-29T13:51:23.438Z,100806.88
2022-11-29T13:53:50.793Z,100800.91
2022-11-29T13:56:45.971Z,100804.19
2022-11-29T13:59:29.228Z,100807.53
2022-11-29T14:01:57.047Z,100804.25
2022-11-29T14:04:35.713Z,100803.84
2022-11-29T14:07:10.438Z,100812.09
2022-11-29T14:09:42.996Z,100815.81
2022-11-29T14:12:38.370Z,100818.69
2022-11-29T14:15:28.261Z,100818.69
2022-11-29T14:18:02.934Z,100818.72
2022-11-29T14:20:29.358Z,100813.34
2022-11-29T14:23:05.077Z,100815.81
2022-11-29T14:25:51.313Z,100824.09
2022-11-29T14:28:18.328Z,100818.72
2022-11-29T14:30:44.834Z,100828.44
2022-11-29T14:33:21.740Z,100829.25
2022-11-29T14:36:19.054Z,100827.59
2022-11-29T14:39:12.375Z,100828.66
2022-11-29T14:41:51.042Z,100819.97
2022-11-29T14:44:24.773Z,100828.22
2022-11-29T14:47:24.367Z,100832.78
2022-11-29T14:49:53.509Z,100833.59
2022-11-29T14:52:32.373Z,100835.47
2022-11-29T14:55:02.006Z,100834.44
2022-11-29T14:57:47.092Z,100841.44
2022-11-29T15:00:34.953Z,100849.50
2022-11-29T15:03:05.296Z,100844.31
2022-11-29T15:05:38.220Z,100849.13
2022-11-29T15:08:32.348Z,100859.22
2022-11-29T15:11:04.549Z,100846.22
2022-11-29T15:13:34.328Z,100846.84
2022-11-29T15:16:09.828Z,100854.28
2022-11-29T15:18:51.183Z,100851.81
2022-11-29T15:21:54.238Z,100857.19
2022-11-29T15:24:26.728Z,100853.44
2022-11-29T15:27:00.800Z,100859.25
2022-11-29T15:29:29.013Z,100855.53
2022-11-29T15:31:58.599Z,100854.28
2022-11-29T15:34:36.875Z,100855.53
2022-11-29T15:37:06.529Z,100854.28
2022-11-29T15:39:35.715Z,100857.59
2022-11-29T15:42:14.503Z,100860.69
2022-11-29T15:44:49.104Z,100860.47
2022-11-29T15:47:26.948Z,100867.50
2022-11-29T15:49:54.183Z,100869.16
2022-11-29T15:52:34.626Z,100865.66
2022-11-29T15:55:05.617Z,100865.63
2022-11-29T15:57:41.262Z,100864.78
2022-11-29T16:00:15.443Z,100873.25
2022-11-29T16:02:50.264Z,100875.75
2022-11-29T16:05:22.375Z,100870.78
2022-11-29T16:07:54.729Z,100878.22
2022-11-29T16:10:25.015Z,100871.63
2022-11-29T16:12:58.975Z,100871.78
2022-11-29T16:15:31.607Z,100882.75
2022-11-29T16:18:05.746Z,100887.72
2022-11-29T16:20:32.408Z,100876.97
2022-11-29T16:23:12.667Z,100885.41
2022-11-29T16:25:53.881Z,100890.41
2022-11-29T16:28:20.480Z,100889.75
2022-11-29T16:30:46.975Z,100893.47
2022-11-29T16:33:21.521Z,100891.63
2022-11-29T16:35:48.758Z,100889.16
2022-11-29T16:38:21.545Z,100887.72
2022-11-29T16:41:06.872Z,100907.13
2022-11-29T16:43:48.397Z,100896.78
2022-11-29T16:46:20.841Z,100900.94
2022-11-29T16:48:51.642Z,100904.63
2022-11-29T16:51:47.951Z,100900.94
2022-11-29T16:54:22.083Z,100903.81
2022-11-29T16:56:52.485Z,100904.19
2022-11-29T16:59:26.863Z,100908.34
2022-11-29T17:01:56.241Z,100900.06
2022-11-29T17:04:23.375Z,100913.69
2022-11-29T17:06:50.978Z,100910.41
2022-11-29T17:09:22.978Z,100917.84
2022-11-29T17:11:49.615Z,100916.16
2022-11-29T17:14:16.252Z,100917.59
2022-11-29T17:16:42.870Z,100922.38
2022-11-29T17:19:12.426Z,100924.19
2022-11-29T17:21:39.077Z,100929.97
2022-11-29T17:24:05.926Z,100935.56
2022-11-29T17:26:32.338Z,100937.88
2022-11-29T17:28:58.831Z,100944.22
2022-11-29T17:31:25.375Z,100940.06
2022-11-29T17:33:52.270Z,100948.34
2022-11-29T17:36:19.893Z,100948.00
2022-11-29T17:38:46.835Z,100947.31
2022-11-29T17:41:22.717Z,100944.00
2022-11-29T17:43:50.270Z,100943.78
2022-11-29T17:46:31.742Z,100957.41
2022-11-29T17:48:59.874Z,100959.03
